createdAt,value
2022-09-24T00:01:47.993Z,10.58
2022-09-24T00:05:50.030Z,10.53
2022-09-24T00:09:52.043Z,10.55
2022-09-24T00:13:56.122Z,10.55
2022-09-24T00:17:58.166Z,10.49
2022-09-24T00:22:00.273Z,10.56
2022-09-24T00:26:20.790Z,10.63
2022-09-24T00:30:22.918Z,10.70
2022-09-24T00:34:25.012Z,10.76
2022-09-24T00:38:27.077Z,10.75
2022-09-24T00:42:32.273Z,10.80
2022-09-24T00:46:42.879Z,10.80
2022-09-24T00:50:45.126Z,10.83
2022-09-24T00:54:48.032Z,10.80
2022-09-24T00:58:52.846Z,10.88
2022-09-24T01:03:04.982Z,10.95
2022-09-24T01:07:07.042Z,10.95
2022-09-24T01:11:21.446Z,10.90
2022-09-24T01:15:33.925Z,10.81
2022-09-24T01:20:02.949Z,10.72
2022-09-24T01:24:25.059Z,10.68
2022-09-24T01:29:08.670Z,10.65
2022-09-24T01:33:16.299Z,10.61
2022-09-24T01:37:22.881Z,10.42
2022-09-24T01:41:25.012Z,10.15
2022-09-24T01:45:32.398Z,10.08
2022-09-24T01:49:34.413Z,10.15
2022-09-24T01:54:03.558Z,10.12
2022-09-24T01:58:10.493Z,10.12
2022-09-24T02:02:27.720Z,10.21
2022-09-24T02:06:40.169Z,10.27
2022-09-24T02:10:50.684Z,10.24
2022-09-24T02:14:57.290Z,10.23
2022-09-24T02:19:04.158Z,10.19
2022-09-24T02:23:07.845Z,10.18
2022-09-24T02:27:10.301Z,10.16
2022-09-24T02:31:21.964Z,10.11
2022-09-24T02:35:24.440Z,10.09
2022-09-24T02:39:26.695Z,10.00
2022-09-24T02:43:28.852Z,9.76
2022-09-24T02:47:31.031Z,9.63
2022-09-24T02:51:33.138Z,9.60
2022-09-24T02:55:35.151Z,9.54
2022-09-24T02:59:37.179Z,9.50
2022-09-24T03:03:39.206Z,9.47
2022-09-24T03:07:41.923Z,9.49
2022-09-24T03:11:43.972Z,9.45
2022-09-24T03:15:46.606Z,9.40
2022-09-24T03:19:50.031Z,9.30
2022-09-24T03:23:52.037Z,9.16
2022-09-24T03:27:54.089Z,8.96
2022-09-24T03:31:56.150Z,8.88
2022-09-24T03:36:04.369Z,8.70
2022-09-24T03:40:07.846Z,8.72
2022-09-24T03:44:10.067Z,8.72
2022-09-24T03:48:12.270Z,8.59
2022-09-24T03:52:14.299Z,8.36
2022-09-24T03:56:16.381Z,8.14
2022-09-24T04:00:18.497Z,8.00
2022-09-24T04:04:20.622Z,8.04
2022-09-24T04:08:23.673Z,8.07
2022-09-24T04:12:25.685Z,8.21
2022-09-24T04:16:27.929Z,8.27
2022-09-24T04:20:31.089Z,8.30
2022-09-24T04:24:33.098Z,8.24
2022-09-24T04:28:35.540Z,8.22
2022-09-24T04:32:37.533Z,8.31
2022-09-24T04:36:39.555Z,8.42
2022-09-24T04:40:41.617Z,8.53
2022-09-24T04:44:46.890Z,8.61
2022-09-24T04:48:49.887Z,8.63
2022-09-24T04:52:52.267Z,8.62
2022-09-24T04:56:54.357Z,8.49
2022-09-24T05:00:56.475Z,8.37
2022-09-24T05:04:58.702Z,8.23
2022-09-24T05:09:00.948Z,8.10
2022-09-24T05:13:03.231Z,7.99
2022-09-24T05:17:05.270Z,7.95
2022-09-24T05:21:07.399Z,7.89
2022-09-24T05:25:09.781Z,7.96
2022-09-24T05:29:12.104Z,8.13
2022-09-24T05:33:14.357Z,8.36
2022-09-24T05:37:16.511Z,8.59
2022-09-24T05:41:18.555Z,8.82
2022-09-24T05:45:20.631Z,9.02
2022-09-24T05:49:22.897Z,9.00
2022-09-24T05:53:24.894Z,9.13
2022-09-24T05:57:26.948Z,9.26
2022-09-24T06:01:31.875Z,9.51
2022-09-24T06:05:35.588Z,9.79
2022-09-24T06:09:37.603Z,10.05
2022-09-24T06:13:39.946Z,10.21
2022-09-24T06:17:42.033Z,10.42
2022-09-24T06:21:44.021Z,10.59
2022-09-24T06:25:50.607Z,10.79
2022-09-24T06:29:52.642Z,11.03
2022-09-24T06:33:57.907Z,11.17
2022-09-24T06:37:59.982Z,11.28
2022-09-24T06:42:02.591Z,11.33
2022-09-24T06:46:10.233Z,11.42
2022-09-24T06:50:12.384Z,11.44
2022-09-24T06:54:14.475Z,11.36
2022-09-24T06:58:21.323Z,11.43
2022-09-24T07:02:23.501Z,11.52
2022-09-24T07:06:25.658Z,11.51
2022-09-24T07:10:29.842Z,11.65
2022-09-24T07:14:31.884Z,11.70
2022-09-24T07:18:33.917Z,11.83
2022-09-24T07:22:40.407Z,11.89
2022-09-24T07:26:42.440Z,11.89
2022-09-24T07:30:44.446Z,12.07
2022-09-24T07:34:46.519Z,12.39
2022-09-24T07:38:48.834Z,12.81
2022-09-24T07:42:50.888Z,13.36
2022-09-24T07:46:53.186Z,13.73
2022-09-24T07:50:55.531Z,14.05
2022-09-24T07:54:57.583Z,14.32
2022-09-24T07:58:59.632Z,14.59
2022-09-24T08:03:03.259Z,14.91
2022-09-24T08:07:05.324Z,15.35
2022-09-24T08:11:10.579Z,15.62
2022-09-24T08:15:12.754Z,15.61
2022-09-24T08:19:16.903Z,15.53
2022-09-24T08:23:19.045Z,15.67
2022-09-24T08:27:21.055Z,15.92
2022-09-24T08:31:23.187Z,16.07
2022-09-24T08:35:25.457Z,16.15
2022-09-24T08:39:27.799Z,16.29
2022-09-24T08:43:44.687Z,16.39
2022-09-24T08:47:56.684Z,16.45
2022-09-24T08:52:26.449Z,16.42
2022-09-24T08:56:34.284Z,16.47
2022-09-24T09:01:01.033Z,16.69
2022-09-24T09:05:18.113Z,16.79
2022-09-24T09:09:24.574Z,16.88
2022-09-24T09:13:35.702Z,16.86
2022-09-24T09:17:49.895Z,16.78
2022-09-24T09:22:01.538Z,16.69
2022-09-24T09:26:06.757Z,16.60
2022-09-24T09:30:14.590Z,16.64
2022-09-24T09:34:46.855Z,16.72
2022-09-24T09:39:04.465Z,16.82
2022-09-24T09:43:11.450Z,16.88
2022-09-24T09:47:45.890Z,17.01
2022-09-24T09:51:49.704Z,17.02
2022-09-24T09:56:02.929Z,17.16
2022-09-24T10:00:05.611Z,17.48
2022-09-24T10:04:41.507Z,17.91
2022-09-24T10:08:43.518Z,18.03
2022-09-24T10:12:46.060Z,18.07
2022-09-24T10:16:54.151Z,18.16
2022-09-24T10:20:57.796Z,18.22
2022-09-24T10:25:01.051Z,18.14
2022-09-24T10:29:23.028Z,18.37
2022-09-24T10:33:26.730Z,18.61
2022-09-24T10:37:30.056Z,18.61
2022-09-24T10:41:32.211Z,18.41
2022-09-24T10:45:48.090Z,18.26
2022-09-24T10:50:07.679Z,18.31
2022-09-24T10:54:18.998Z,18.40
2022-09-24T10:58:48.406Z,18.49
2022-09-24T11:02:56.616Z,18.55
2022-09-24T11:07:20.212Z,18.67
2022-09-24T11:11:55.390Z,18.85
2022-09-24T11:16:14.291Z,19.00
2022-09-24T11:20:27.007Z,19.22
2022-09-24T11:24:46.539Z,19.45
2022-09-24T11:29:11.354Z,19.73
2022-09-24T11:33:35.133Z,20.11
2022-09-24T11:37:58.942Z,20.22
2022-09-24T11:42:24.250Z,20.21
2022-09-24T11:47:03.453Z,20.04
2022-09-24T11:51:17.769Z,19.91
2022-09-24T11:55:34.176Z,19.98
2022-09-24T11:59:45.185Z,20.11
2022-09-24T12:03:53.036Z,20.17
2022-09-24T12:08:07.519Z,20.13
2022-09-24T12:12:22.737Z,20.02
2022-09-24T12:16:28.532Z,20.01
2022-09-24T12:20:31.904Z,20.03
2022-09-24T12:24:42.706Z,20.08
2022-09-24T12:29:36.332Z,20.20
2022-09-24T12:34:03.395Z,20.40
2022-09-24T12:38:23.607Z,20.45
2022-09-24T12:42:34.790Z,20.48
2022-09-24T12:46:48.485Z,20.46
2022-09-24T12:50:57.939Z,20.33
2022-09-24T12:55:03.774Z,20.16
2022-09-24T12:59:05.837Z,20.12
2022-09-24T13:03:37.150Z,20.19
2022-09-24T13:07:44.134Z,20.28
2022-09-24T13:11:46.636Z,20.22
2022-09-24T13:16:03.389Z,20.14
2022-09-24T13:20:08.742Z,20.08
2022-09-24T13:24:11.733Z,20.08
2022-09-24T13:28:29.236Z,20.01
2022-09-24T13:33:09.892Z,20.06
2022-09-24T13:37:21.658Z,20.10
2022-09-24T13:41:38.985Z,20.19
2022-09-24T13:45:45.243Z,20.14
2022-09-24T13:49:51.226Z,20.02
2022-09-24T13:53:57.378Z,19.95
2022-09-24T13:57:59.559Z,19.96
2022-09-24T14:02:01.794Z,19.98
2022-09-24T14:06:12.108Z,19.97
2022-09-24T14:10:15.026Z,19.94
2022-09-24T14:14:21.012Z,19.95
2022-09-24T14:18:24.363Z,19.87
2022-09-24T14:22:36.547Z,19.75
2022-09-24T14:26:44.243Z,19.67
2022-09-24T14:30:53.993Z,19.58
2022-09-24T14:34:59.743Z,19.56
2022-09-24T14:39:05.294Z,19.53
2022-09-24T14:43:20.367Z,19.57
2022-09-24T14:47:28.276Z,19.50
2022-09-24T14:51:31.840Z,19.47
2022-09-24T14:55:40.151Z,19.44
2022-09-24T14:59:42.542Z,19.34
2022-09-24T15:03:54.366Z,19.30
2022-09-24T15:08:23.102Z,19.29
2022-09-24T15:12:34.008Z,19.27
2022-09-24T15:16:37.509Z,19.30
2022-09-24T15:20:39.501Z,19.29
2022-09-24T15:24:41.545Z,19.22
2022-09-24T15:28:43.553Z,19.14
2022-09-24T15:32:46.133Z,19.06
2022-09-24T15:36:49.418Z,18.95
2022-09-24T15:40:53.708Z,18.83
2022-09-24T15:44:57.702Z,18.77
2022-09-24T15:48:59.684Z,18.69
2022-09-24T15:53:02.350Z,18.65
2022-09-24T15:57:04.399Z,18.56
2022-09-24T16:01:06.509Z,18.50
2022-09-24T16:05:13.013Z,18.45
2022-09-24T16:09:15.023Z,18.41
2022-09-24T16:13:17.864Z,18.37
2022-09-24T16:17:19.861Z,18.34
2022-09-24T16:21:21.986Z,18.32
2022-09-24T16:25:24.072Z,18.25
2022-09-24T16:29:26.374Z,18.20
2022-09-24T16:33:28.370Z,18.16
2022-09-24T16:37:30.425Z,18.05
2022-09-24T16:41:34.429Z,18.02
2022-09-24T16:45:36.556Z,17.97
2022-09-24T16:49:38.551Z,17.95
2022-09-24T16:53:43.865Z,17.91
2022-09-24T16:57:48.374Z,17.84
2022-09-24T17:01:50.525Z,17.81
2022-09-24T17:05:52.565Z,17.76
2022-09-24T17:10:13.086Z,17.70
2022-09-24T17:14:16.968Z,17.68
2022-09-24T17:18:18.993Z,17.58
2022-09-24T17:22:21.029Z,17.50
2022-09-24T17:26:23.312Z,17.43
2022-09-24T17:30:26.780Z,17.34
2022-09-24T17:34:28.897Z,17.30
2022-09-24T17:38:32.718Z,17.26
2022-09-24T17:42:34.791Z,17.22
2022-09-24T17:46:36.818Z,17.17
2022-09-24T17:50:38.860Z,17.13
2022-09-24T17:54:40.934Z,17.12
2022-09-24T17:58:46.775Z,17.10
2022-09-24T18:02:48.850Z,16.95
2022-09-24T18:06:50.877Z,16.82
2022-09-24T18:11:03.623Z,16.76
2022-09-24T18:15:06.020Z,16.64
2022-09-24T18:19:10.840Z,16.52
2022-09-24T18:23:13.478Z,16.18
2022-09-24T18:27:16.015Z,15.89
2022-09-24T18:31:20.311Z,15.87
2022-09-24T18:35:22.309Z,15.59
2022-09-24T18:39:25.676Z,15.47
2022-09-24T18:43:28.570Z,15.30
2022-09-24T18:47:30.872Z,15.26
2022-09-24T18:51:35.413Z,15.19
2022-09-24T18:55:40.550Z,15.11
2022-09-24T18:59:46.708Z,14.98
2022-09-24T19:03:49.188Z,14.90
2022-09-24T19:07:51.168Z,14.87
2022-09-24T19:11:53.153Z,14.64
2022-09-24T19:15:55.255Z,14.45
2022-09-24T19:19:59.053Z,14.51
2022-09-24T19:24:01.319Z,14.72
2022-09-24T19:28:05.428Z,14.71
2022-09-24T19:32:07.673Z,14.70
2022-09-24T19:36:10.274Z,14.50
2022-09-24T19:40:12.491Z,14.39
2022-09-24T19:44:16.511Z,14.40
2022-09-24T19:48:19.623Z,14.45
2022-09-24T19:52:21.617Z,14.49
2022-09-24T19:56:25.403Z,14.57
2022-09-24T20:00:27.384Z,14.55
2022-09-24T20:04:29.590Z,14.52
2022-09-24T20:08:31.556Z,14.58
2022-09-24T20:12:34.204Z,14.58
2022-09-24T20:16:36.317Z,14.58
2022-09-24T20:20:41.990Z,14.60
2022-09-24T20:24:44.011Z,14.60
2022-09-24T20:28:46.464Z,14.57
2022-09-24T20:32:48.501Z,14.40
2022-09-24T20:36:50.854Z,14.22
2022-09-24T20:40:52.955Z,14.20
2022-09-24T20:44:56.023Z,14.32
2022-09-24T20:48:59.855Z,14.25
2022-09-24T20:53:01.944Z,14.31
2022-09-24T20:57:04.106Z,14.25
2022-09-24T21:01:07.319Z,14.31
2022-09-24T21:05:10.351Z,14.31
2022-09-24T21:09:13.731Z,14.34
2022-09-24T21:13:15.754Z,14.33
2022-09-24T21:17:18.514Z,14.33
2022-09-24T21:21:26.355Z,14.32
2022-09-24T21:25:52.882Z,14.36
2022-09-24T21:29:50.353Z,14.37
2022-09-24T21:33:53.325Z,14.35
2022-09-24T21:37:55.721Z,14.31
2022-09-24T21:41:59.259Z,14.30
2022-09-24T21:46:05.255Z,14.30
2022-09-24T21:50:09.678Z,14.29
2022-09-24T21:54:17.256Z,14.33
2022-09-24T21:58:19.547Z,14.23
2022-09-24T22:02:21.619Z,14.25
2022-09-24T22:06:27.027Z,14.27
2022-09-24T22:10:29.025Z,14.34
2022-09-24T22:14:34.497Z,14.34
2022-09-24T22:18:37.662Z,14.36
2022-09-24T22:22:39.637Z,14.36
2022-09-24T22:26:41.616Z,14.33
2022-09-24T22:30:44.572Z,14.32
2022-09-24T22:35:05.566Z,14.31
2022-09-24T22:39:07.934Z,14.29
2022-09-24T22:43:10.012Z,14.32
2022-09-24T22:47:12.071Z,14.30
2022-09-24T22:51:14.354Z,14.26
2022-09-24T22:55:16.414Z,14.31
2022-09-24T22:59:18.418Z,14.29
2022-09-24T23:03:20.515Z,14.31
2022-09-24T23:07:23.080Z,14.25
2022-09-24T23:11:30.575Z,14.21
2022-09-24T23:15:32.565Z,14.18
2022-09-24T23:19:49.837Z,14.20
2022-09-24T23:23:54.104Z,14.10
2022-09-24T23:27:56.089Z,14.06
2022-09-24T23:31:58.062Z,14.00
2022-09-24T23:36:00.486Z,13.96
2022-09-24T23:40:03.165Z,13.98
2022-09-24T23:44:05.269Z,14.07
2022-09-24T23:48:07.283Z,14.12
2022-09-24T23:52:09.288Z,14.06
2022-09-24T23:56:11.443Z,13.99
